createdAt,value
2018-12-21T00:00:18.249Z,998.23
2018-12-21T00:01:18.241Z,998.24
2018-12-21T00:02:18.230Z,998.23
2018-12-21T00:03:18.219Z,998.22
2018-12-21T00:04:18.208Z,998.20
2018-12-21T00:05:18.198Z,998.14
2018-12-21T00:06:18.187Z,998.19
2018-12-21T00:07:18.176Z,998.24
2018-12-21T00:08:18.164Z,998.21
2018-12-21T00:09:18.158Z,998.24
2018-12-21T00:10:18.141Z,998.23
2018-12-21T00:20:29.505Z,998.23
2018-12-21T00:21:29.490Z,998.20
2018-12-21T00:22:29.480Z,998.24
2018-12-21T00:23:29.471Z,998.23
2018-12-21T00:24:29.461Z,998.21
2018-12-21T00:25:29.453Z,998.14
2018-12-21T00:26:29.450Z,998.16
2018-12-21T00:27:29.428Z,998.13
2018-12-21T00:28:29.416Z,998.08
2018-12-21T00:29:29.408Z,998.03
2018-12-21T00:30:29.398Z,998.03
2018-12-21T00:31:29.385Z,998.00
2018-12-21T00:32:29.375Z,998.00
2018-12-21T00:33:29.365Z,998.03
2018-12-21T00:34:29.353Z,997.94
2018-12-21T00:35:29.344Z,997.96
2018-12-21T00:36:29.331Z,997.96
2018-12-21T00:37:29.325Z,997.91
2018-12-21T00:38:29.312Z,997.86
2018-12-21T00:39:29.301Z,997.85
2018-12-21T00:40:29.290Z,997.77
2018-12-21T00:41:29.279Z,997.75
2018-12-21T00:42:29.267Z,997.76
2018-12-21T00:43:29.263Z,997.81
2018-12-21T00:44:29.246Z,997.90
2018-12-21T00:45:29.237Z,997.93
2018-12-21T00:46:29.227Z,998.02
2018-12-21T00:47:29.215Z,998.00
2018-12-21T00:48:29.202Z,998.04
2018-12-21T00:49:29.192Z,998.06
2018-12-21T00:50:29.182Z,998.01
2018-12-21T00:51:30.353Z,997.94
2018-12-21T00:52:29.160Z,997.91
2018-12-21T00:53:29.149Z,997.91
2018-12-21T00:54:29.139Z,997.87
2018-12-21T00:55:29.130Z,997.79
2018-12-21T00:56:29.121Z,997.77
2018-12-21T00:57:29.107Z,997.75
2018-12-21T00:58:29.094Z,997.72
2018-12-21T00:59:29.083Z,997.83
2018-12-21T01:00:29.076Z,997.82
2018-12-21T01:01:29.063Z,997.79
2018-12-21T01:02:29.054Z,997.84
2018-12-21T01:03:29.042Z,997.80
2018-12-21T01:04:29.032Z,997.83
2018-12-21T01:05:29.022Z,997.76
2018-12-21T01:06:29.010Z,997.72
2018-12-21T01:07:29.000Z,997.68
2018-12-21T01:08:28.986Z,997.72
2018-12-21T01:09:28.979Z,997.69
2018-12-21T01:10:28.968Z,997.66
2018-12-21T01:11:28.959Z,997.65
2018-12-21T01:12:28.946Z,997.58
2018-12-21T01:13:28.934Z,997.57
2018-12-21T01:14:28.925Z,997.52
2018-12-21T01:15:28.912Z,997.48
2018-12-21T01:16:28.902Z,997.50
2018-12-21T01:17:28.891Z,997.50
2018-12-21T01:18:28.881Z,997.51
2018-12-21T01:19:28.870Z,997.48
2018-12-21T01:20:28.860Z,997.50
2018-12-21T01:21:28.848Z,997.51
2018-12-21T01:22:28.837Z,997.45
2018-12-21T01:23:28.829Z,997.48
2018-12-21T01:24:28.817Z,997.53
2018-12-21T01:25:28.805Z,997.57
2018-12-21T01:26:28.795Z,997.58
2018-12-21T01:27:28.782Z,997.56
2018-12-21T01:28:28.773Z,997.48
2018-12-21T01:29:28.763Z,997.56
2018-12-21T01:30:28.751Z,997.55
2018-12-21T01:31:28.743Z,997.50
2018-12-21T01:32:28.731Z,997.50
2018-12-21T01:33:28.719Z,997.53
2018-12-21T01:34:28.710Z,997.50
2018-12-21T01:35:28.698Z,997.52
2018-12-21T01:36:28.695Z,997.48
2018-12-21T01:37:28.677Z,997.54
2018-12-21T01:38:28.667Z,997.55
2018-12-21T01:39:28.658Z,997.50
2018-12-21T01:40:28.643Z,997.53
2018-12-21T01:41:28.633Z,997.49
2018-12-21T01:42:28.622Z,997.49
2018-12-21T01:43:28.614Z,997.46
2018-12-21T01:44:28.599Z,997.43
2018-12-21T01:45:28.590Z,997.46
2018-12-21T01:46:28.659Z,997.43
2018-12-21T01:47:28.567Z,997.43
2018-12-21T01:48:28.557Z,997.44
2018-12-21T01:49:28.544Z,997.51
2018-12-21T01:50:28.535Z,997.34
2018-12-21T01:51:28.524Z,997.40
2018-12-21T01:52:28.514Z,997.33
2018-12-21T01:53:28.501Z,997.43
2018-12-21T01:54:28.491Z,997.37
2018-12-21T01:55:28.481Z,997.37
2018-12-21T01:56:28.469Z,997.33
2018-12-21T01:57:28.457Z,997.33
2018-12-21T01:58:28.446Z,997.35
2018-12-21T01:59:28.437Z,997.36
2018-12-21T02:00:28.427Z,997.34
2018-12-21T02:01:28.417Z,997.31
2018-12-21T02:02:28.403Z,997.27
2018-12-21T02:12:23.869Z,997.04
2018-12-21T02:13:23.856Z,997.03
2018-12-21T02:14:23.853Z,997.03
2018-12-21T02:15:23.835Z,996.95
2018-12-21T02:16:23.824Z,996.95
2018-12-21T02:17:23.816Z,996.98
2018-12-21T02:18:23.804Z,996.99
2018-12-21T02:19:23.792Z,996.93
2018-12-21T02:20:23.779Z,996.93
2018-12-21T02:21:23.772Z,996.94
2018-12-21T02:22:23.761Z,996.89
2018-12-21T02:23:23.752Z,996.89
2018-12-21T02:24:23.738Z,996.85
2018-12-21T02:25:23.728Z,996.89
2018-12-21T02:26:23.716Z,996.92
2018-12-21T02:27:23.717Z,996.86
2018-12-21T02:28:23.695Z,996.86
2018-12-21T02:29:23.688Z,996.85
2018-12-21T02:30:23.680Z,996.83
2018-12-21T02:31:23.664Z,996.81
2018-12-21T02:32:23.656Z,996.79
2018-12-21T02:33:23.642Z,996.79
2018-12-21T02:34:23.630Z,996.75
2018-12-21T02:35:23.622Z,996.68
2018-12-21T02:36:23.610Z,996.69
2018-12-21T02:37:23.601Z,996.62
2018-12-21T02:38:23.590Z,996.63
2018-12-21T02:39:23.579Z,996.61
2018-12-21T02:40:23.566Z,996.63
2018-12-21T02:41:23.557Z,996.62
2018-12-21T02:42:23.546Z,996.63
2018-12-21T02:43:23.536Z,996.54
2018-12-21T02:44:23.525Z,996.51
2018-12-21T02:45:23.515Z,996.55
2018-12-21T02:46:23.505Z,996.49
2018-12-21T02:47:23.491Z,996.52
2018-12-21T02:48:23.483Z,996.48
2018-12-21T02:49:23.474Z,996.44
2018-12-21T02:50:23.462Z,996.46
2018-12-21T02:51:23.467Z,996.45
2018-12-21T02:52:23.440Z,996.44
2018-12-21T02:53:23.430Z,996.37
2018-12-21T02:54:23.418Z,996.39
2018-12-21T02:55:23.407Z,996.32
2018-12-21T02:56:23.399Z,996.31
2018-12-21T02:57:23.387Z,996.33
2018-12-21T02:58:23.377Z,996.37
2018-12-21T02:59:23.366Z,996.35
2018-12-21T03:00:23.354Z,996.38
2018-12-21T03:01:23.343Z,996.31
2018-12-21T03:02:23.334Z,996.27
2018-12-21T03:03:23.323Z,996.16
2018-12-21T03:04:23.311Z,996.19
2018-12-21T03:05:23.302Z,996.18
2018-12-21T03:06:23.291Z,996.13
2018-12-21T03:07:23.279Z,996.10
2018-12-21T03:08:23.272Z,996.07
2018-12-21T03:09:23.257Z,995.99
2018-12-21T03:10:23.245Z,995.97
2018-12-21T03:11:23.236Z,995.93
2018-12-21T03:12:23.226Z,995.94
2018-12-21T03:13:23.213Z,995.95
2018-12-21T03:14:23.201Z,995.91
2018-12-21T03:15:23.197Z,995.89
2018-12-21T03:16:23.187Z,995.88
2018-12-21T03:17:23.170Z,995.86
2018-12-21T03:18:23.159Z,995.86
2018-12-21T03:19:23.149Z,995.81
2018-12-21T03:20:23.138Z,995.80
2018-12-21T03:21:23.128Z,995.79
2018-12-21T03:22:23.115Z,995.80
2018-12-21T03:23:23.185Z,995.78
2018-12-21T03:24:23.096Z,995.72
2018-12-21T03:25:23.085Z,995.75
2018-12-21T03:26:23.093Z,995.69
2018-12-21T03:27:23.066Z,995.74
2018-12-21T03:28:23.053Z,995.75
2018-12-21T03:29:23.042Z,995.72
2018-12-21T03:30:23.033Z,995.69
2018-12-21T03:31:23.024Z,995.73
2018-12-21T03:32:23.017Z,995.60
2018-12-21T03:33:22.998Z,995.66
2018-12-21T03:34:22.997Z,995.67
2018-12-21T03:35:22.990Z,995.65
2018-12-21T03:36:22.969Z,995.53
2018-12-21T03:37:22.954Z,995.56
2018-12-21T03:38:22.948Z,995.39
2018-12-21T03:39:22.934Z,995.36
2018-12-21T03:40:22.928Z,995.37
2018-12-21T03:41:22.913Z,995.32
2018-12-21T03:42:22.901Z,995.33
2018-12-21T03:43:22.891Z,995.29
2018-12-21T03:44:22.880Z,995.35
2018-12-21T03:45:22.869Z,995.34
2018-12-21T03:46:22.855Z,995.28
2018-12-21T03:47:22.848Z,995.25
2018-12-21T03:48:22.836Z,995.19
2018-12-21T03:49:22.827Z,995.17
2018-12-21T03:50:22.813Z,995.15
2018-12-21T03:51:22.803Z,995.13
2018-12-21T03:52:24.572Z,995.16
2018-12-21T03:53:22.783Z,995.19
2018-12-21T03:54:22.769Z,995.13
2018-12-21T03:55:22.760Z,995.09
2018-12-21T03:56:22.747Z,995.08
2018-12-21T03:57:22.739Z,995.02
2018-12-21T03:58:22.727Z,995.03
2018-12-21T03:59:22.716Z,994.93
2018-12-21T04:00:22.704Z,994.93
2018-12-21T04:01:22.692Z,994.94
2018-12-21T04:02:22.683Z,994.90
2018-12-21T04:03:22.671Z,994.84
2018-12-21T04:04:22.661Z,994.90
2018-12-21T04:05:22.651Z,994.82
2018-12-21T04:06:22.637Z,994.79
2018-12-21T04:07:22.630Z,994.86
2018-12-21T04:08:22.618Z,994.77
2018-12-21T04:09:22.606Z,994.78
2018-12-21T04:10:22.596Z,994.77
2018-12-21T04:11:22.585Z,994.80
2018-12-21T04:12:22.578Z,994.85
2018-12-21T04:13:22.565Z,994.82
2018-12-21T04:14:22.552Z,994.80
2018-12-21T04:15:22.542Z,994.76
2018-12-21T04:16:22.531Z,994.69
2018-12-21T04:17:22.519Z,994.71
2018-12-21T04:18:22.513Z,994.63
2018-12-21T04:19:22.498Z,994.65
2018-12-21T04:20:22.500Z,994.52
2018-12-21T04:21:22.479Z,994.53
2018-12-21T04:22:22.465Z,994.55
2018-12-21T04:23:22.454Z,994.55
2018-12-21T04:24:22.529Z,994.47
2018-12-21T04:25:22.434Z,994.42
2018-12-21T04:26:22.423Z,994.39
2018-12-21T04:27:22.414Z,994.42
2018-12-21T04:28:22.403Z,994.40
2018-12-21T04:29:22.389Z,994.25
2018-12-21T04:30:22.378Z,994.26
2018-12-21T04:31:22.366Z,994.32
2018-12-21T04:32:22.359Z,994.25
2018-12-21T04:33:22.348Z,994.19
2018-12-21T04:34:22.343Z,994.16
2018-12-21T04:35:22.325Z,994.08
2018-12-21T04:36:22.376Z,994.02
2018-12-21T04:37:22.304Z,993.90
2018-12-21T04:38:22.292Z,993.88
2018-12-21T04:39:22.281Z,993.75
2018-12-21T04:40:22.269Z,993.84
2018-12-21T04:41:22.260Z,993.86
2018-12-21T04:42:22.247Z,993.84
2018-12-21T04:43:22.240Z,993.85
2018-12-21T04:44:22.229Z,993.79
2018-12-21T04:45:22.217Z,993.82
2018-12-21T04:46:22.204Z,993.78
2018-12-21T04:47:22.191Z,993.84
2018-12-21T04:48:22.183Z,993.76
2018-12-21T04:49:22.172Z,993.82
2018-12-21T04:50:22.160Z,993.95
2018-12-21T04:51:22.149Z,993.85
2018-12-21T04:52:22.140Z,993.94
2018-12-21T04:53:22.125Z,993.90
2018-12-21T04:54:22.135Z,993.89
2018-12-21T04:55:22.106Z,993.84
2018-12-21T04:56:22.095Z,993.86
2018-12-21T04:57:22.087Z,993.79
2018-12-21T04:58:22.072Z,993.80
2018-12-21T04:59:22.064Z,993.75
2018-12-21T05:00:22.175Z,993.76
2018-12-21T05:01:22.045Z,993.72
2018-12-21T05:02:22.030Z,993.75
2018-12-21T05:03:22.020Z,993.65
2018-12-21T05:04:22.008Z,993.64
2018-12-21T05:05:22.003Z,993.59
2018-12-21T05:06:21.987Z,993.59
2018-12-21T05:07:21.977Z,993.63
2018-12-21T05:08:21.965Z,993.59
2018-12-21T05:09:21.954Z,993.57
2018-12-21T05:10:21.941Z,993.61
2018-12-21T05:11:21.939Z,993.54
2018-12-21T05:12:21.921Z,993.52
2018-12-21T05:13:21.911Z,993.52
2018-12-21T05:14:21.908Z,993.49
2018-12-21T05:15:21.889Z,993.47
2018-12-21T05:16:21.880Z,993.50
2018-12-21T05:17:21.866Z,993.45
2018-12-21T05:18:21.856Z,993.49
2018-12-21T05:19:24.050Z,993.48
2018-12-21T05:20:21.836Z,993.51
2018-12-21T05:21:21.822Z,993.47
2018-12-21T05:22:21.821Z,993.39
2018-12-21T05:23:21.802Z,993.44
2018-12-21T05:24:21.793Z,993.43
2018-12-21T05:25:21.779Z,993.34
2018-12-21T05:26:21.771Z,993.27
2018-12-21T05:27:21.763Z,993.27
2018-12-21T05:28:21.753Z,993.25
2018-12-21T05:29:21.736Z,993.32
2018-12-21T05:30:21.739Z,993.25
2018-12-21T05:31:28.175Z,993.16
2018-12-21T05:32:42.889Z,993.11
2018-12-21T05:33:42.874Z,993.13
2018-12-21T05:34:42.867Z,992.99
2018-12-21T05:35:42.854Z,992.96
2018-12-21T05:36:42.844Z,992.84
2018-12-21T05:37:42.833Z,992.86
2018-12-21T05:38:42.823Z,992.92
2018-12-21T05:39:42.815Z,993.00
2018-12-21T05:40:42.799Z,992.97
2018-12-21T05:41:42.795Z,992.90
2018-12-21T05:42:42.782Z,992.88
2018-12-21T05:43:42.767Z,992.83
2018-12-21T05:44:42.756Z,992.82
2018-12-21T05:45:42.750Z,992.83
2018-12-21T05:46:42.735Z,992.79
2018-12-21T05:47:42.724Z,992.76
2018-12-21T05:48:42.713Z,992.68
2018-12-21T05:49:42.709Z,992.69
2018-12-21T05:50:42.692Z,992.63
2018-12-21T05:51:42.681Z,992.58
2018-12-21T05:52:42.670Z,992.58
2018-12-21T05:53:42.659Z,992.47
2018-12-21T05:54:42.648Z,992.43
2018-12-21T05:55:42.639Z,992.33
2018-12-21T05:56:42.626Z,992.47
2018-12-21T05:57:42.622Z,992.27
2018-12-21T05:58:42.606Z,992.28
2018-12-21T05:59:42.596Z,992.22
2018-12-21T06:00:42.582Z,992.11
2018-12-21T06:01:42.572Z,992.11
2018-12-21T06:02:42.561Z,992.19
2018-12-21T06:03:42.551Z,992.13
2018-12-21T06:04:42.541Z,992.18
2018-12-21T06:05:42.529Z,992.08
2018-12-21T06:06:42.519Z,992.05
2018-12-21T06:07:42.507Z,992.08
2018-12-21T06:08:42.495Z,992.06
2018-12-21T06:09:42.485Z,992.01
2018-12-21T06:10:42.473Z,991.95
2018-12-21T06:11:42.461Z,992.00
2018-12-21T06:12:42.557Z,991.97
2018-12-21T06:13:42.443Z,991.92
2018-12-21T06:14:42.431Z,991.96
2018-12-21T06:15:42.420Z,991.99
2018-12-21T06:16:42.410Z,991.96
2018-12-21T06:17:42.405Z,991.89
2018-12-21T06:18:42.385Z,991.86
2018-12-21T06:19:42.375Z,991.90
2018-12-21T06:20:42.363Z,991.78
2018-12-21T06:21:42.359Z,991.80
2018-12-21T06:22:42.345Z,991.75
2018-12-21T06:23:42.332Z,991.69
2018-12-21T06:24:42.322Z,991.68
2018-12-21T06:25:42.308Z,991.64
2018-12-21T06:26:42.299Z,991.68
2018-12-21T06:27:42.286Z,991.69
2018-12-21T06:28:42.276Z,991.69
2018-12-21T06:29:42.265Z,991.60
2018-12-21T06:30:42.268Z,991.58
2018-12-21T06:31:42.245Z,991.55
2018-12-21T06:32:42.231Z,991.44
2018-12-21T06:33:42.219Z,991.42
2018-12-21T06:34:42.208Z,991.42
2018-12-21T06:35:42.199Z,991.31
2018-12-21T06:36:42.191Z,991.28
2018-12-21T06:37:42.175Z,991.25
2018-12-21T06:38:42.166Z,991.25
2018-12-21T06:39:42.157Z,991.22
2018-12-21T06:40:42.143Z,991.15
2018-12-21T06:41:42.133Z,991.16
2018-12-21T06:42:42.121Z,991.16
2018-12-21T06:43:42.111Z,991.11
2018-12-21T06:44:42.097Z,991.19
2018-12-21T06:45:42.087Z,991.12
2018-12-21T06:46:42.079Z,991.11
2018-12-21T06:47:42.067Z,991.08
2018-12-21T06:48:42.059Z,991.07
2018-12-21T06:49:42.047Z,991.09
2018-12-21T06:50:42.037Z,990.98
2018-12-21T06:51:42.021Z,990.93
2018-12-21T06:52:42.009Z,990.87
2018-12-21T06:53:41.998Z,990.79
2018-12-21T06:54:42.000Z,990.75
2018-12-21T06:55:41.978Z,990.76
2018-12-21T06:56:41.964Z,990.83
2018-12-21T06:57:41.953Z,991.00
2018-12-21T06:58:41.947Z,990.90
2018-12-21T06:59:41.935Z,990.87
2018-12-21T07:00:41.922Z,990.72
2018-12-21T07:01:41.909Z,990.70
2018-12-21T07:02:41.905Z,990.69
2018-12-21T07:03:41.895Z,990.66
2018-12-21T07:04:41.879Z,990.74
2018-12-21T07:05:41.866Z,990.64
2018-12-21T07:06:41.854Z,990.71
2018-12-21T07:07:41.862Z,990.64
2018-12-21T07:08:41.835Z,990.62
2018-12-21T07:09:41.822Z,990.64
2018-12-21T07:10:41.812Z,990.57
2018-12-21T07:11:41.802Z,990.44
2018-12-21T07:12:41.788Z,990.50
2018-12-21T07:13:41.778Z,990.41
2018-12-21T07:14:41.766Z,990.42
2018-12-21T07:15:41.758Z,990.42
2018-12-21T07:16:41.746Z,990.39
2018-12-21T07:17:41.734Z,990.39
2018-12-21T07:18:41.723Z,990.49
2018-12-21T07:19:41.712Z,990.41
2018-12-21T07:20:41.700Z,990.38
2018-12-21T07:21:41.698Z,990.34
2018-12-21T07:22:41.686Z,990.27
2018-12-21T07:23:41.668Z,990.21
2018-12-21T07:24:41.657Z,990.26
2018-12-21T07:25:41.645Z,990.33
2018-12-21T07:26:41.642Z,990.34
2018-12-21T07:27:41.623Z,990.32
2018-12-21T07:28:41.613Z,990.27
2018-12-21T07:29:41.601Z,990.33
2018-12-21T07:30:41.591Z,990.42
2018-12-21T07:31:41.578Z,990.29
2018-12-21T07:32:41.566Z,990.29
2018-12-21T07:33:41.558Z,990.34
2018-12-21T07:34:41.545Z,990.34
2018-12-21T07:35:41.538Z,990.42
2018-12-21T07:36:41.523Z,990.43
2018-12-21T07:37:41.511Z,990.36
2018-12-21T07:38:41.502Z,990.42
2018-12-21T07:39:41.492Z,990.37
2018-12-21T07:40:41.588Z,990.36
2018-12-21T07:41:41.467Z,990.41
2018-12-21T07:42:41.457Z,990.38
2018-12-21T07:43:41.446Z,990.41
2018-12-21T07:44:41.436Z,990.34
2018-12-21T07:45:41.423Z,990.21
2018-12-21T07:46:41.414Z,990.27
2018-12-21T07:47:41.403Z,990.16
2018-12-21T07:48:41.392Z,990.09
2018-12-21T07:49:41.379Z,990.12
2018-12-21T07:50:41.369Z,990.14
2018-12-21T07:51:41.355Z,990.23
2018-12-21T07:52:41.349Z,990.16
2018-12-21T07:53:41.335Z,990.18
2018-12-21T07:54:41.324Z,990.12
2018-12-21T07:55:41.311Z,990.09
2018-12-21T07:56:41.301Z,990.01
2018-12-21T07:57:41.288Z,989.97
2018-12-21T07:58:41.279Z,990.06
2018-12-21T07:59:41.266Z,990.00
2018-12-21T08:00:41.259Z,990.02
2018-12-21T08:01:41.246Z,990.03
2018-12-21T08:02:41.234Z,989.97
2018-12-21T08:03:41.223Z,989.95
2018-12-21T08:04:41.214Z,989.94
2018-12-21T08:05:41.202Z,989.91
2018-12-21T08:06:41.193Z,989.94
2018-12-21T08:07:41.177Z,989.83
2018-12-21T08:08:41.169Z,989.88
2018-12-21T08:09:41.158Z,989.85
2018-12-21T08:10:41.145Z,989.79
2018-12-21T08:11:41.133Z,989.82
2018-12-21T08:12:41.124Z,989.72
2018-12-21T08:13:41.111Z,989.71
2018-12-21T08:14:41.102Z,989.76
2018-12-21T08:15:41.091Z,989.70
2018-12-21T08:16:41.077Z,989.67
2018-12-21T08:17:41.068Z,989.60
2018-12-21T08:18:41.056Z,989.64
2018-12-21T08:19:41.044Z,989.56
2018-12-21T08:20:41.036Z,989.55
2018-12-21T08:21:41.022Z,989.53
2018-12-21T08:22:41.013Z,989.46
2018-12-21T08:23:44.360Z,989.45
2018-12-21T08:24:40.990Z,989.40
2018-12-21T08:25:40.982Z,989.46
2018-12-21T08:26:40.966Z,989.39
2018-12-21T08:27:40.958Z,989.41
2018-12-21T08:28:40.947Z,989.22
2018-12-21T08:29:40.935Z,989.27
2018-12-21T08:30:40.922Z,989.18
2018-12-21T08:31:40.915Z,989.08
2018-12-21T08:32:40.905Z,988.88
2018-12-21T08:33:40.891Z,988.74
2018-12-21T08:34:40.878Z,988.65
2018-12-21T08:35:40.870Z,988.57
2018-12-21T08:36:40.857Z,988.49
2018-12-21T08:37:40.844Z,988.46
2018-12-21T08:38:40.836Z,988.43
2018-12-21T08:39:40.824Z,988.37
2018-12-21T08:40:40.813Z,988.18
2018-12-21T08:41:40.801Z,988.21
2018-12-21T08:42:40.791Z,988.24
2018-12-21T08:43:40.779Z,988.21
2018-12-21T08:44:40.770Z,988.23
2018-12-21T08:45:40.756Z,988.15
2018-12-21T08:46:40.747Z,988.13
2018-12-21T08:47:40.741Z,988.14
2018-12-21T08:48:40.723Z,988.07
2018-12-21T08:49:40.715Z,988.07
2018-12-21T08:50:40.701Z,988.11
2018-12-21T08:51:40.693Z,988.15
2018-12-21T08:52:40.680Z,988.22
2018-12-21T08:53:40.670Z,988.13
2018-12-21T08:54:40.658Z,988.06
2018-12-21T08:55:40.649Z,988.12
2018-12-21T08:56:40.635Z,988.04
2018-12-21T08:57:40.625Z,988.07
2018-12-21T08:58:40.613Z,988.08
2018-12-21T08:59:40.605Z,988.03
2018-12-21T09:00:40.591Z,988.03
2018-12-21T09:01:40.579Z,988.03
2018-12-21T09:02:40.568Z,987.99
2018-12-21T09:03:40.560Z,988.01
2018-12-21T09:04:40.546Z,987.98
2018-12-21T09:05:40.535Z,987.90
2018-12-21T09:06:40.527Z,987.84
2018-12-21T09:07:40.527Z,987.97
2018-12-21T09:08:40.502Z,988.02
2018-12-21T09:09:40.490Z,987.95
2018-12-21T09:10:40.480Z,987.87
2018-12-21T09:11:40.470Z,987.79
2018-12-21T09:12:40.457Z,987.82
2018-12-21T09:13:40.447Z,987.65
2018-12-21T09:14:40.448Z,987.67
2018-12-21T09:15:40.424Z,987.71
2018-12-21T09:16:40.414Z,987.71
2018-12-21T09:17:40.404Z,987.61
2018-12-21T09:18:40.391Z,987.68
2018-12-21T09:19:40.383Z,987.62
2018-12-21T09:20:40.371Z,987.71
2018-12-21T09:21:40.359Z,987.78
2018-12-21T09:22:40.346Z,987.62
2018-12-21T09:23:40.335Z,987.63
2018-12-21T09:24:40.326Z,987.73
2018-12-21T09:25:40.317Z,987.67
2018-12-21T09:26:40.406Z,987.65
2018-12-21T09:27:40.292Z,987.54
2018-12-21T09:28:40.283Z,987.63
2018-12-21T09:29:40.270Z,987.55
2018-12-21T09:30:40.259Z,987.54
2018-12-21T09:31:40.248Z,987.48
2018-12-21T09:32:40.241Z,987.46
2018-12-21T09:33:40.225Z,987.58
2018-12-21T09:34:40.214Z,987.52
2018-12-21T09:35:40.201Z,987.48
2018-12-21T09:36:40.192Z,987.48
2018-12-21T09:37:40.180Z,987.41
2018-12-21T09:38:40.169Z,987.39
2018-12-21T09:39:40.157Z,987.43
2018-12-21T09:40:40.147Z,987.40
2018-12-21T09:41:40.138Z,987.40
2018-12-21T09:42:40.126Z,987.43
2018-12-21T09:43:40.114Z,987.48
2018-12-21T09:44:40.101Z,987.44
2018-12-21T09:45:40.089Z,987.53
2018-12-21T09:46:40.078Z,987.47
2018-12-21T09:47:40.070Z,987.48
2018-12-21T09:48:40.057Z,987.41
2018-12-21T09:49:40.046Z,987.39
2018-12-21T09:50:40.037Z,987.38
2018-12-21T09:51:40.025Z,987.38
2018-12-21T09:52:40.011Z,987.28
2018-12-21T09:53:40.006Z,987.15
2018-12-21T09:54:39.991Z,987.17
2018-12-21T09:55:39.980Z,987.29
2018-12-21T09:56:39.967Z,987.25
2018-12-21T09:57:40.056Z,987.29
2018-12-21T09:58:39.945Z,987.30
2018-12-21T09:59:39.934Z,987.25
2018-12-21T10:00:39.925Z,987.19
2018-12-21T10:01:39.912Z,987.20
2018-12-21T10:02:39.905Z,987.18
2018-12-21T10:03:39.890Z,987.17
2018-12-21T10:04:39.879Z,987.22
2018-12-21T10:05:39.869Z,987.14
2018-12-21T10:06:39.860Z,987.01
2018-12-21T10:07:39.843Z,987.08
2018-12-21T10:08:39.838Z,986.98
2018-12-21T10:09:39.829Z,986.90
2018-12-21T10:10:39.814Z,986.99
2018-12-21T10:11:39.801Z,986.95
2018-12-21T10:12:39.791Z,986.97
2018-12-21T10:13:39.782Z,986.92
2018-12-21T10:14:39.770Z,986.99
2018-12-21T10:15:39.755Z,987.09
2018-12-21T10:16:39.745Z,987.10
2018-12-21T10:17:39.737Z,987.00
2018-12-21T10:18:39.722Z,987.00
2018-12-21T10:19:39.711Z,986.77
2018-12-21T10:20:39.700Z,986.87
2018-12-21T10:21:39.689Z,986.87
2018-12-21T10:22:39.677Z,986.94
2018-12-21T10:23:39.669Z,987.06
2018-12-21T10:24:39.656Z,986.95
2018-12-21T10:25:39.645Z,986.87
2018-12-21T10:26:39.637Z,986.77
2018-12-21T10:27:39.622Z,986.92
2018-12-21T10:28:39.611Z,987.15
2018-12-21T10:29:39.600Z,987.01
2018-12-21T10:30:39.590Z,986.54
2018-12-21T10:31:39.578Z,986.67
2018-12-21T10:32:39.568Z,986.90
2018-12-21T10:33:39.558Z,986.83
2018-12-21T10:34:39.547Z,987.12
2018-12-21T10:35:39.533Z,987.01
2018-12-21T10:36:39.526Z,986.74
2018-12-21T10:37:39.511Z,986.61
2018-12-21T10:38:39.503Z,986.78
2018-12-21T10:39:39.489Z,986.79
2018-12-21T10:40:39.480Z,986.71
2018-12-21T10:41:39.467Z,986.59
2018-12-21T10:42:39.471Z,986.63
2018-12-21T10:43:39.446Z,986.85
2018-12-21T10:44:39.439Z,986.89
2018-12-21T10:45:41.732Z,986.88
2018-12-21T10:46:39.416Z,986.79
2018-12-21T10:47:39.401Z,986.77
2018-12-21T10:48:39.390Z,986.76
2018-12-21T10:49:39.379Z,986.73
2018-12-21T10:50:39.366Z,986.70
2018-12-21T10:51:39.355Z,986.68
2018-12-21T10:52:39.345Z,986.59
2018-12-21T10:53:39.661Z,986.63
2018-12-21T10:54:39.324Z,986.64
2018-12-21T10:55:39.312Z,986.69
2018-12-21T10:56:39.301Z,986.70
2018-12-21T10:57:39.291Z,986.67
2018-12-21T10:58:39.279Z,986.56
2018-12-21T10:59:43.433Z,986.50
2018-12-21T11:00:39.260Z,986.55
2018-12-21T11:01:39.245Z,986.54
2018-12-21T11:02:39.234Z,986.58
2018-12-21T11:03:39.224Z,986.62
2018-12-21T11:04:39.211Z,986.64
2018-12-21T11:05:39.200Z,986.59
2018-12-21T11:06:39.190Z,986.60
2018-12-21T11:07:39.179Z,986.57
2018-12-21T11:08:39.166Z,986.50
2018-12-21T11:09:39.157Z,986.49
2018-12-21T11:10:39.144Z,986.43
2018-12-21T11:11:39.132Z,986.48
2018-12-21T11:12:39.123Z,986.51
2018-12-21T11:13:39.110Z,986.50
2018-12-21T11:14:39.101Z,986.59
2018-12-21T11:15:39.087Z,986.54
2018-12-21T11:16:39.080Z,986.58
2018-12-21T11:17:39.068Z,986.47
2018-12-21T11:18:39.055Z,986.56
2018-12-21T11:19:39.044Z,986.55
2018-12-21T11:20:39.046Z,986.52
2018-12-21T11:21:39.023Z,986.50
2018-12-21T11:22:39.016Z,986.45
2018-12-21T11:23:38.998Z,986.41
2018-12-21T11:24:38.990Z,986.45
2018-12-21T11:25:38.979Z,986.45
2018-12-21T11:26:38.967Z,986.49
2018-12-21T11:27:38.958Z,986.46
2018-12-21T11:28:38.942Z,986.40
2018-12-21T11:29:38.934Z,986.40
2018-12-21T11:30:38.922Z,986.39
2018-12-21T11:31:38.912Z,986.39
2018-12-21T11:32:38.901Z,986.39
2018-12-21T11:33:38.888Z,986.38
2018-12-21T11:34:38.876Z,986.31
2018-12-21T11:35:38.865Z,986.40
2018-12-21T11:36:38.855Z,986.32
2018-12-21T11:37:38.846Z,986.42
2018-12-21T11:38:38.834Z,986.40
2018-12-21T11:39:38.822Z,986.41
2018-12-21T11:40:38.812Z,986.48
2018-12-21T11:41:38.801Z,986.46
2018-12-21T11:42:38.789Z,986.42
2018-12-21T11:43:38.777Z,986.47
2018-12-21T11:44:38.767Z,986.51
2018-12-21T11:45:38.756Z,986.44
2018-12-21T11:46:38.744Z,986.45
2018-12-21T11:47:38.733Z,986.39
2018-12-21T11:48:38.721Z,986.49
2018-12-21T11:49:38.726Z,986.50
2018-12-21T11:50:38.700Z,986.45
2018-12-21T11:51:38.689Z,986.40
2018-12-21T11:52:38.676Z,986.43
2018-12-21T11:53:38.665Z,986.31
2018-12-21T11:54:44.176Z,986.33
2018-12-21T11:55:38.644Z,986.37
2018-12-21T11:56:38.630Z,986.28
2018-12-21T11:57:38.620Z,986.41
2018-12-21T11:58:38.611Z,986.45
2018-12-21T11:59:44.858Z,986.44
2018-12-21T12:02:25.305Z,986.48
2018-12-21T12:03:25.296Z,986.41
2018-12-21T12:04:25.282Z,986.47
2018-12-21T12:05:25.272Z,986.39
2018-12-21T12:06:25.262Z,986.33
2018-12-21T12:07:25.251Z,986.32
2018-12-21T12:08:25.239Z,986.36
2018-12-21T12:09:25.229Z,986.38
2018-12-21T12:10:25.219Z,986.43
2018-12-21T12:11:25.207Z,986.34
2018-12-21T12:12:25.195Z,986.43
2018-12-21T12:13:25.184Z,986.42
2018-12-21T12:14:25.173Z,986.35
2018-12-21T12:15:25.162Z,986.34
2018-12-21T12:16:25.152Z,986.37
2018-12-21T12:17:25.143Z,986.33
2018-12-21T12:18:25.129Z,986.28
2018-12-21T12:19:25.130Z,986.18
2018-12-21T12:20:25.108Z,986.21
2018-12-21T12:21:25.096Z,986.25
2018-12-21T12:22:25.085Z,986.29
2018-12-21T12:23:25.074Z,986.29
2018-12-21T12:24:25.062Z,986.29
2018-12-21T12:25:25.053Z,986.38
2018-12-21T12:26:25.040Z,986.38
2018-12-21T12:27:25.029Z,986.44
2018-12-21T12:28:25.020Z,986.41
2018-12-21T12:29:25.008Z,986.44
2018-12-21T12:30:24.996Z,986.42
2018-12-21T12:31:24.986Z,986.41
2018-12-21T12:32:24.975Z,986.41
2018-12-21T12:33:24.964Z,986.47
2018-12-21T12:34:24.952Z,986.50
2018-12-21T12:35:24.943Z,986.48
2018-12-21T12:36:24.932Z,986.51
2018-12-21T12:37:24.919Z,986.48
2018-12-21T12:38:24.913Z,986.47
2018-12-21T12:39:24.899Z,986.48
2018-12-21T12:40:24.939Z,986.37
2018-12-21T12:41:24.876Z,986.46
2018-12-21T12:42:24.866Z,986.44
2018-12-21T12:43:24.855Z,986.39
2018-12-21T12:44:24.845Z,986.36
2018-12-21T12:45:24.833Z,986.47
2018-12-21T12:46:24.825Z,986.44
2018-12-21T12:47:24.813Z,986.50
2018-12-21T12:48:24.800Z,986.41